createdAt,value
2022-08-31T00:01:30.905Z,17.40
2022-08-31T00:04:01.675Z,17.40
2022-08-31T00:06:32.132Z,17.50
2022-08-31T00:09:00.222Z,17.50
2022-08-31T00:11:31.229Z,17.50
2022-08-31T00:14:05.780Z,17.50
2022-08-31T00:16:35.913Z,17.50
2022-08-31T00:19:04.036Z,17.50
2022-08-31T00:21:31.390Z,17.50
2022-08-31T00:23:59.803Z,17.50
2022-08-31T00:26:27.180Z,17.50
2022-08-31T00:28:55.144Z,17.50
2022-08-31T00:31:22.208Z,17.50
2022-08-31T00:33:52.593Z,17.40
2022-08-31T00:36:22.884Z,17.40
2022-08-31T00:38:51.160Z,17.40
2022-08-31T00:41:21.695Z,17.30
2022-08-31T00:43:51.130Z,17.40
2022-08-31T00:46:26.279Z,17.30
2022-08-31T00:49:16.733Z,17.40
2022-08-31T00:51:53.433Z,17.40
2022-08-31T00:54:26.522Z,17.40
2022-08-31T00:56:54.674Z,17.50
2022-08-31T00:59:22.931Z,17.50
2022-08-31T01:01:50.646Z,17.50
2022-08-31T01:04:19.352Z,17.50
2022-08-31T01:06:48.922Z,17.60
2022-08-31T01:09:17.120Z,17.50
2022-08-31T01:11:45.008Z,17.60
2022-08-31T01:14:12.622Z,17.50
2022-08-31T01:16:47.245Z,17.50
2022-08-31T01:19:37.175Z,17.50
2022-08-31T01:22:13.488Z,17.60
2022-08-31T01:24:44.504Z,17.50
2022-08-31T01:27:13.812Z,17.60
2022-08-31T01:29:42.693Z,17.60
2022-08-31T01:32:10.895Z,17.60
2022-08-31T01:34:37.809Z,17.60
2022-08-31T01:37:05.321Z,17.60
2022-08-31T01:39:32.715Z,17.60
2022-08-31T01:41:59.879Z,17.60
2022-08-31T01:44:27.775Z,17.50
2022-08-31T01:46:56.095Z,17.60
2022-08-31T01:49:24.504Z,17.60
2022-08-31T01:51:52.989Z,17.60
2022-08-31T01:54:22.435Z,17.60
2022-08-31T01:56:50.998Z,17.50
2022-08-31T01:59:25.125Z,17.50
2022-08-31T02:02:20.436Z,17.50
2022-08-31T02:04:47.828Z,17.40
2022-08-31T02:07:14.649Z,17.40
2022-08-31T02:09:41.520Z,17.40
2022-08-31T02:12:08.850Z,17.40
2022-08-31T02:14:40.919Z,17.40
2022-08-31T02:17:09.947Z,17.30
2022-08-31T02:19:37.600Z,17.30
2022-08-31T02:22:04.513Z,17.30
2022-08-31T02:24:31.884Z,17.30
2022-08-31T02:26:59.549Z,17.30
2022-08-31T02:29:27.591Z,17.30
2022-08-31T02:31:57.221Z,17.20
2022-08-31T02:34:25.387Z,17.20
2022-08-31T02:36:53.366Z,17.20
2022-08-31T02:39:21.800Z,17.20
2022-08-31T02:41:51.210Z,17.10
2022-08-31T02:44:20.883Z,17.10
2022-08-31T02:46:48.561Z,17.10
2022-08-31T02:49:40.059Z,17.10
2022-08-31T02:52:08.124Z,17.10
2022-08-31T02:54:35.753Z,17.50
2022-08-31T02:57:03.281Z,17.10
2022-08-31T02:59:30.400Z,17.00
2022-08-31T03:01:58.336Z,17.00
2022-08-31T03:04:25.607Z,17.00
2022-08-31T03:06:52.931Z,17.00
2022-08-31T03:09:19.971Z,17.00
2022-08-31T03:11:46.872Z,16.90
2022-08-31T03:14:16.076Z,17.00
2022-08-31T03:16:44.092Z,17.00
2022-08-31T03:19:11.011Z,16.90
2022-08-31T03:21:38.207Z,16.90
2022-08-31T03:24:06.181Z,16.90
2022-08-31T03:29:49.612Z,16.90
2022-08-31T03:32:19.946Z,17.00
2022-08-31T03:34:54.213Z,17.00
2022-08-31T03:37:21.775Z,17.10
2022-08-31T03:39:51.610Z,17.10
2022-08-31T03:42:20.093Z,17.10
2022-08-31T03:44:48.395Z,17.10
2022-08-31T03:47:24.289Z,17.10
2022-08-31T03:49:56.202Z,17.10
2022-08-31T03:52:26.859Z,17.10
2022-08-31T03:55:02.827Z,17.10
2022-08-31T03:57:30.236Z,17.10
2022-08-31T03:59:58.021Z,17.10
2022-08-31T04:02:41.058Z,17.10
2022-08-31T04:05:29.506Z,17.10
2022-08-31T04:08:19.912Z,17.10
2022-08-31T04:11:37.174Z,17.10
2022-08-31T04:14:29.951Z,17.10
2022-08-31T04:17:26.373Z,17.10
2022-08-31T04:20:07.868Z,17.10
2022-08-31T04:22:43.748Z,17.10
2022-08-31T04:25:28.690Z,17.20
2022-08-31T04:27:56.696Z,17.20
2022-08-31T04:30:26.962Z,17.20
2022-08-31T04:32:54.334Z,17.20
2022-08-31T04:35:22.505Z,17.20
2022-08-31T04:37:50.113Z,17.20
2022-08-31T04:40:20.025Z,17.20
2022-08-31T04:42:48.671Z,17.20
2022-08-31T04:45:19.602Z,17.20
2022-08-31T04:47:49.820Z,17.20
2022-08-31T04:50:16.772Z,17.30
2022-08-31T04:53:04.901Z,17.30
2022-08-31T04:55:32.073Z,17.30
2022-08-31T04:57:59.439Z,17.30
2022-08-31T05:00:26.929Z,17.30
2022-08-31T05:03:12.876Z,17.30
2022-08-31T05:05:41.489Z,17.30
2022-08-31T05:08:08.732Z,17.40
2022-08-31T05:10:36.026Z,17.40
2022-08-31T05:13:05.186Z,17.40
2022-08-31T05:15:33.310Z,17.40
2022-08-31T05:18:00.934Z,17.50
2022-08-31T05:20:30.720Z,17.50
2022-08-31T05:22:57.577Z,17.50
2022-08-31T05:25:24.711Z,17.50
2022-08-31T05:27:54.185Z,17.60
2022-08-31T05:30:22.584Z,17.60
2022-08-31T05:33:05.842Z,17.60
2022-08-31T05:35:35.523Z,17.60
2022-08-31T05:38:06.319Z,17.60
2022-08-31T05:40:33.203Z,17.70
2022-08-31T05:43:00.244Z,17.70
2022-08-31T05:45:27.577Z,17.70
2022-08-31T05:47:55.902Z,17.70
2022-08-31T05:50:23.350Z,17.70
2022-08-31T05:52:50.308Z,17.70
2022-08-31T05:55:17.413Z,17.80
2022-08-31T05:57:44.431Z,17.80
2022-08-31T06:00:12.907Z,17.80
2022-08-31T06:02:45.429Z,17.90
2022-08-31T06:05:13.897Z,17.90
2022-08-31T06:07:42.611Z,17.90
2022-08-31T06:10:14.834Z,18.00
2022-08-31T06:12:44.376Z,18.00
2022-08-31T06:15:12.370Z,18.10
2022-08-31T06:17:40.703Z,18.10
2022-08-31T06:20:13.010Z,18.20
2022-08-31T06:22:46.707Z,18.30
2022-08-31T06:25:23.589Z,18.30
2022-08-31T06:27:53.308Z,18.40
2022-08-31T06:30:23.034Z,18.50
2022-08-31T06:32:50.921Z,18.60
2022-08-31T06:35:25.411Z,18.60
2022-08-31T06:38:25.082Z,18.70
2022-08-31T06:41:15.807Z,18.70
2022-08-31T06:44:06.527Z,18.70
2022-08-31T06:46:46.543Z,18.80
2022-08-31T06:49:23.831Z,18.70
2022-08-31T06:51:53.365Z,18.70
2022-08-31T06:54:36.000Z,18.70
2022-08-31T06:57:35.568Z,18.70
2022-08-31T07:00:22.902Z,18.80
2022-08-31T07:03:23.148Z,18.70
2022-08-31T07:05:53.085Z,18.70
2022-08-31T07:08:21.346Z,18.70
2022-08-31T07:10:55.241Z,18.70
2022-08-31T07:13:22.097Z,18.80
2022-08-31T07:15:49.039Z,18.80
2022-08-31T07:18:16.667Z,18.80
2022-08-31T07:20:44.065Z,18.80
2022-08-31T07:23:14.077Z,18.80
2022-08-31T07:25:50.180Z,18.80
2022-08-31T07:28:17.118Z,18.80
2022-08-31T07:30:44.716Z,18.80
2022-08-31T07:33:16.800Z,18.90
2022-08-31T07:35:49.396Z,18.90
2022-08-31T07:38:50.879Z,18.90
2022-08-31T07:41:36.840Z,19.00
2022-08-31T07:44:04.430Z,19.00
2022-08-31T07:46:32.153Z,19.10
2022-08-31T07:49:01.308Z,19.20
2022-08-31T07:52:06.978Z,19.30
2022-08-31T07:55:09.416Z,19.40
2022-08-31T07:57:59.575Z,19.50
2022-08-31T08:00:29.847Z,19.60
2022-08-31T08:03:01.660Z,19.80
2022-08-31T08:05:32.775Z,19.80
2022-08-31T08:08:36.967Z,20.00
2022-08-31T08:11:36.950Z,19.90
2022-08-31T08:14:23.261Z,20.00
2022-08-31T08:17:05.699Z,20.10
2022-08-31T08:19:39.299Z,20.10
2022-08-31T08:22:06.187Z,20.20
2022-08-31T08:24:56.248Z,20.20
2022-08-31T08:27:46.567Z,20.20
2022-08-31T08:30:30.743Z,20.20
2022-08-31T08:33:01.262Z,20.20
2022-08-31T08:35:32.628Z,20.20
2022-08-31T08:38:02.292Z,20.20
2022-08-31T08:40:39.458Z,20.20
2022-08-31T08:43:06.425Z,20.20
2022-08-31T08:45:33.909Z,20.20
2022-08-31T08:48:06.871Z,20.30
2022-08-31T08:50:34.124Z,20.30
2022-08-31T08:53:05.324Z,20.40
2022-08-31T08:55:38.085Z,20.40
2022-08-31T08:58:09.377Z,20.40
2022-08-31T09:00:46.375Z,20.40
2022-08-31T09:03:42.230Z,20.40
2022-08-31T09:07:23.112Z,20.40
2022-08-31T09:10:11.953Z,20.50
2022-08-31T09:12:49.045Z,20.70
2022-08-31T09:15:55.586Z,20.80
2022-08-31T09:18:44.134Z,20.80
2022-08-31T09:21:23.610Z,20.90
2022-08-31T09:24:03.169Z,21.00
2022-08-31T09:26:54.414Z,21.00
2022-08-31T09:29:33.107Z,21.10
2022-08-31T09:32:07.080Z,21.10
2022-08-31T09:34:37.562Z,21.20
2022-08-31T09:37:23.483Z,21.30
2022-08-31T09:39:52.742Z,21.30
2022-08-31T09:42:29.160Z,21.20
2022-08-31T09:45:00.114Z,21.20
2022-08-31T09:47:48.243Z,21.20
2022-08-31T09:50:46.077Z,21.20
2022-08-31T09:53:31.447Z,21.20
2022-08-31T09:56:22.756Z,21.20
2022-08-31T09:58:51.125Z,21.20
2022-08-31T10:01:20.208Z,21.10
2022-08-31T10:03:48.384Z,21.10
2022-08-31T10:06:48.245Z,21.00
2022-08-31T10:09:26.516Z,21.00
2022-08-31T10:11:57.790Z,20.80
2022-08-31T10:14:41.180Z,20.70
2022-08-31T10:17:19.045Z,20.50
2022-08-31T10:19:58.420Z,20.50
2022-08-31T10:22:34.235Z,20.40
2022-08-31T10:25:12.726Z,20.40
2022-08-31T10:27:48.688Z,20.40
2022-08-31T10:30:38.920Z,20.50
2022-08-31T10:33:11.423Z,20.50
2022-08-31T10:35:58.334Z,20.50
2022-08-31T10:38:35.264Z,20.40
2022-08-31T10:41:17.556Z,20.40
2022-08-31T10:43:53.604Z,20.40
2022-08-31T10:46:21.024Z,20.30
2022-08-31T10:48:54.391Z,20.20
2022-08-31T10:51:39.801Z,20.10
2022-08-31T10:54:45.094Z,20.10
2022-08-31T10:57:19.437Z,19.90
2022-08-31T11:00:07.777Z,19.80
2022-08-31T11:03:06.043Z,19.60
2022-08-31T11:05:59.245Z,19.40
2022-08-31T11:08:32.581Z,19.20
2022-08-31T11:11:01.617Z,19.00
2022-08-31T11:14:00.842Z,18.80
2022-08-31T11:16:30.748Z,18.70
2022-08-31T11:19:19.308Z,18.40
2022-08-31T11:21:56.361Z,18.20
2022-08-31T11:24:39.039Z,18.10
2022-08-31T11:27:14.606Z,18.10
2022-08-31T11:30:07.902Z,18.10
2022-08-31T11:32:50.950Z,18.10
2022-08-31T11:35:48.064Z,18.20
2022-08-31T11:38:58.507Z,18.20
2022-08-31T11:41:35.415Z,18.20
2022-08-31T11:44:05.315Z,18.20
2022-08-31T11:46:39.783Z,18.30
2022-08-31T11:49:11.239Z,18.30
2022-08-31T11:51:41.978Z,18.30
2022-08-31T11:54:14.617Z,18.40
2022-08-31T11:56:50.111Z,18.40
2022-08-31T11:59:23.391Z,18.40
2022-08-31T12:01:50.450Z,18.40
2022-08-31T12:04:46.820Z,18.50
2022-08-31T12:07:26.552Z,18.50
2022-08-31T12:10:07.074Z,18.40
2022-08-31T12:12:45.915Z,18.30
2022-08-31T12:15:13.184Z,18.30
2022-08-31T12:18:11.389Z,18.20
2022-08-31T12:21:14.316Z,18.10
2022-08-31T12:24:07.737Z,18.10
2022-08-31T12:27:04.876Z,18.10
2022-08-31T12:29:34.448Z,18.20
2022-08-31T12:32:10.897Z,18.20
2022-08-31T12:34:44.987Z,18.20
2022-08-31T12:37:39.278Z,18.20
2022-08-31T12:40:20.508Z,18.20
2022-08-31T12:43:09.221Z,18.20
2022-08-31T12:46:07.216Z,18.10
2022-08-31T12:48:55.134Z,18.10
2022-08-31T12:51:34.493Z,18.10
2022-08-31T12:54:32.869Z,18.10
2022-08-31T12:57:29.083Z,18.00
2022-08-31T13:00:13.336Z,18.00
2022-08-31T13:02:44.291Z,18.00
2022-08-31T13:05:27.445Z,18.00
2022-08-31T13:07:54.943Z,18.00
2022-08-31T13:10:30.463Z,17.90
2022-08-31T13:13:01.661Z,17.90
2022-08-31T13:15:48.974Z,18.00
2022-08-31T13:18:27.503Z,17.90
2022-08-31T13:21:02.300Z,17.90
2022-08-31T13:23:43.296Z,17.90
2022-08-31T13:26:25.350Z,17.90
2022-08-31T13:28:58.832Z,17.90
2022-08-31T13:31:33.184Z,17.80
2022-08-31T13:34:03.534Z,17.90
2022-08-31T13:36:34.580Z,17.90
2022-08-31T13:39:16.451Z,17.90
2022-08-31T13:42:06.029Z,17.90
2022-08-31T13:44:39.240Z,17.90
2022-08-31T13:47:19.971Z,17.90
2022-08-31T13:49:49.543Z,17.90
2022-08-31T13:52:27.236Z,17.90
2022-08-31T13:55:10.638Z,18.00
2022-08-31T13:57:38.904Z,18.10
2022-08-31T14:00:44.632Z,18.20
2022-08-31T14:03:42.413Z,18.20
2022-08-31T14:06:26.158Z,18.20
2022-08-31T14:09:17.813Z,18.20
2022-08-31T14:11:54.138Z,18.30
2022-08-31T14:14:26.911Z,18.30
2022-08-31T14:16:57.647Z,18.30
2022-08-31T14:19:33.685Z,18.40
2022-08-31T14:22:30.596Z,18.40
2022-08-31T14:25:00.513Z,18.50
2022-08-31T14:27:29.573Z,18.50
2022-08-31T14:29:58.252Z,18.50
2022-08-31T14:32:29.046Z,18.60
2022-08-31T14:34:57.913Z,18.60
2022-08-31T14:37:28.796Z,18.60
2022-08-31T14:40:07.170Z,18.50
2022-08-31T14:42:37.897Z,18.50
2022-08-31T14:45:18.269Z,18.50
2022-08-31T14:47:47.573Z,18.50
2022-08-31T14:50:20.117Z,18.60
2022-08-31T14:52:52.974Z,18.60
2022-08-31T14:55:22.421Z,18.60
2022-08-31T14:57:57.965Z,18.40
2022-08-31T15:00:26.435Z,18.40
2022-08-31T15:02:54.059Z,18.30
2022-08-31T15:05:24.919Z,18.30
2022-08-31T15:07:54.254Z,18.10
2022-08-31T15:10:25.796Z,18.10
2022-08-31T15:12:53.621Z,18.10
2022-08-31T15:15:23.852Z,18.00
2022-08-31T15:17:51.627Z,18.10
2022-08-31T15:20:21.026Z,18.00
2022-08-31T15:22:48.417Z,18.00
2022-08-31T15:25:17.042Z,18.00
2022-08-31T15:27:44.443Z,18.00
2022-08-31T15:30:14.808Z,17.90
2022-08-31T15:32:48.790Z,17.90
2022-08-31T15:35:20.181Z,17.90
2022-08-31T15:38:01.258Z,17.90
2022-08-31T15:40:38.126Z,18.00
2022-08-31T15:43:09.534Z,18.10
2022-08-31T15:45:36.807Z,18.10
2022-08-31T15:48:22.816Z,18.10
2022-08-31T15:50:53.753Z,18.10
2022-08-31T15:53:27.307Z,18.10
2022-08-31T15:55:54.269Z,18.10
2022-08-31T15:58:25.263Z,18.00
2022-08-31T16:00:52.409Z,18.00
2022-08-31T16:03:19.501Z,18.00
2022-08-31T16:05:47.093Z,18.00
2022-08-31T16:08:14.420Z,17.90
2022-08-31T16:10:48.912Z,17.90
2022-08-31T16:13:16.499Z,17.90
2022-08-31T16:15:50.968Z,17.80
2022-08-31T16:18:23.218Z,17.80
2022-08-31T16:20:52.005Z,17.80
2022-08-31T16:23:20.153Z,17.70
2022-08-31T16:25:48.691Z,17.60
2022-08-31T16:28:18.587Z,17.50
2022-08-31T16:30:45.614Z,17.40
2022-08-31T16:33:12.428Z,17.40
2022-08-31T16:35:40.379Z,17.30
2022-08-31T16:38:10.309Z,17.30
2022-08-31T16:40:37.519Z,17.20
2022-08-31T16:43:05.476Z,17.20
2022-08-31T16:45:32.798Z,17.20
2022-08-31T16:48:18.361Z,17.20
2022-08-31T16:50:50.036Z,17.20
2022-08-31T16:53:18.283Z,17.20
2022-08-31T16:55:48.485Z,17.20
2022-08-31T16:58:25.109Z,17.20
2022-08-31T17:01:13.816Z,17.20
2022-08-31T17:03:56.517Z,17.20
2022-08-31T17:06:25.393Z,17.10
2022-08-31T17:08:54.462Z,17.10
2022-08-31T17:11:31.191Z,17.10
2022-08-31T17:14:00.883Z,17.10
2022-08-31T17:16:30.460Z,17.00
2022-08-31T17:18:59.309Z,17.00
2022-08-31T17:21:29.539Z,17.00
2022-08-31T17:23:58.749Z,17.00
2022-08-31T17:26:31.123Z,16.90
2022-08-31T17:29:03.972Z,17.00
2022-08-31T17:31:35.012Z,16.90
2022-08-31T17:34:02.642Z,16.90
2022-08-31T17:36:36.545Z,16.90
2022-08-31T17:39:04.806Z,16.80
2022-08-31T17:41:32.047Z,16.80
2022-08-31T17:44:00.025Z,16.80
2022-08-31T17:46:27.721Z,16.80
2022-08-31T17:48:56.100Z,16.80
2022-08-31T17:51:29.196Z,16.80
2022-08-31T17:54:12.574Z,16.70
2022-08-31T17:56:48.280Z,16.80
2022-08-31T17:59:22.071Z,16.80
2022-08-31T18:01:52.306Z,16.80
2022-08-31T18:04:21.233Z,16.80
2022-08-31T18:06:51.494Z,16.80
2022-08-31T18:09:20.782Z,16.70
2022-08-31T18:11:50.901Z,16.70
2022-08-31T18:14:23.763Z,16.70
2022-08-31T18:16:52.659Z,16.70
2022-08-31T18:19:27.452Z,16.70
2022-08-31T18:21:55.919Z,16.70
2022-08-31T18:24:23.762Z,16.70
2022-08-31T18:26:52.364Z,16.70
2022-08-31T18:29:24.876Z,16.70
2022-08-31T18:31:53.885Z,16.70
2022-08-31T18:34:23.491Z,16.70
2022-08-31T18:36:53.402Z,16.70
2022-08-31T18:39:41.094Z,16.70
2022-08-31T18:42:28.833Z,16.70
2022-08-31T18:45:14.203Z,16.70
2022-08-31T18:47:41.160Z,16.70
2022-08-31T18:50:08.673Z,16.60
2022-08-31T18:52:39.134Z,16.60
2022-08-31T18:55:10.604Z,16.50
2022-08-31T18:57:48.644Z,16.60
2022-08-31T19:00:18.207Z,16.60
2022-08-31T19:02:45.340Z,16.60
2022-08-31T19:05:14.543Z,16.60
2022-08-31T19:07:42.255Z,16.60
2022-08-31T19:10:13.120Z,16.60
2022-08-31T19:12:42.562Z,16.60
2022-08-31T19:15:11.162Z,16.60
2022-08-31T19:17:40.052Z,16.60
2022-08-31T19:20:10.315Z,16.60
2022-08-31T19:22:38.614Z,16.60
2022-08-31T19:25:07.998Z,16.60
2022-08-31T19:27:35.173Z,16.60
2022-08-31T19:30:05.812Z,16.60
2022-08-31T19:32:33.600Z,16.60
2022-08-31T19:35:00.365Z,16.50
2022-08-31T19:37:27.707Z,16.50
2022-08-31T19:39:54.530Z,16.50
2022-08-31T19:42:39.687Z,16.50
2022-08-31T19:45:24.358Z,16.40
2022-08-31T19:47:52.021Z,16.50
2022-08-31T19:50:19.558Z,16.40
2022-08-31T19:52:47.064Z,16.40
2022-08-31T19:55:14.693Z,16.40
2022-08-31T19:57:43.230Z,16.40
2022-08-31T20:00:14.731Z,16.40
2022-08-31T20:02:44.566Z,16.40
2022-08-31T20:05:12.107Z,16.40
2022-08-31T20:07:41.430Z,16.40
2022-08-31T20:10:11.089Z,16.30
2022-08-31T20:12:39.739Z,16.40
2022-08-31T20:15:07.086Z,16.30
2022-08-31T20:17:35.194Z,16.30
2022-08-31T20:20:02.970Z,16.30
2022-08-31T20:22:30.071Z,16.30
2022-08-31T20:25:00.709Z,16.20
2022-08-31T20:27:28.089Z,16.30
2022-08-31T20:29:56.488Z,16.20
2022-08-31T20:32:26.308Z,16.20
2022-08-31T20:34:56.117Z,16.20
2022-08-31T20:37:25.211Z,16.20
2022-08-31T20:39:52.103Z,16.20
2022-08-31T20:42:22.610Z,16.20
2022-08-31T20:44:49.455Z,16.20
2022-08-31T20:47:34.877Z,16.20
2022-08-31T20:50:03.670Z,16.20
2022-08-31T20:52:32.793Z,16.20
2022-08-31T20:55:02.723Z,16.20
2022-08-31T20:57:32.173Z,16.10
2022-08-31T21:00:06.474Z,16.10
2022-08-31T21:02:34.600Z,16.10
2022-08-31T21:05:20.675Z,16.10
2022-08-31T21:07:49.308Z,16.10
2022-08-31T21:10:16.223Z,16.10
2022-08-31T21:12:50.822Z,16.10
2022-08-31T21:15:22.454Z,16.10
2022-08-31T21:17:57.195Z,16.10
2022-08-31T21:20:26.104Z,16.10
2022-08-31T21:22:53.811Z,16.00
2022-08-31T21:25:20.996Z,16.00
2022-08-31T21:27:50.452Z,16.10
2022-08-31T21:30:18.695Z,16.00
2022-08-31T21:32:46.799Z,16.00
2022-08-31T21:35:18.012Z,16.00
2022-08-31T21:37:48.137Z,16.00
2022-08-31T21:40:15.218Z,16.00
2022-08-31T21:42:42.081Z,16.10
2022-08-31T21:45:10.687Z,16.10
2022-08-31T21:47:37.527Z,16.00
2022-08-31T21:50:05.033Z,16.00
2022-08-31T21:52:31.878Z,16.00
2022-08-31T21:54:58.692Z,16.00
2022-08-31T21:57:25.668Z,16.00
2022-08-31T21:59:52.584Z,16.00
2022-08-31T22:02:19.404Z,16.00
2022-08-31T22:04:47.687Z,16.00
2022-08-31T22:07:14.880Z,16.00
2022-08-31T22:09:45.100Z,15.90
2022-08-31T22:12:12.774Z,15.90
2022-08-31T22:14:41.176Z,16.00
2022-08-31T22:17:09.498Z,16.00
2022-08-31T22:19:39.285Z,16.00
2022-08-31T22:22:12.078Z,16.00
2022-08-31T22:24:57.847Z,15.90
2022-08-31T22:27:24.684Z,16.00
2022-08-31T22:29:52.629Z,16.00
2022-08-31T22:32:19.601Z,16.00
2022-08-31T22:34:46.487Z,16.00
2022-08-31T22:37:14.369Z,16.10
2022-08-31T22:39:42.694Z,15.90
2022-08-31T22:42:11.853Z,15.90
2022-08-31T22:44:40.369Z,15.90
2022-08-31T22:47:07.555Z,15.90
2022-08-31T22:49:34.517Z,15.80
2022-08-31T22:52:01.468Z,15.90
2022-08-31T22:54:28.444Z,15.80
2022-08-31T22:56:55.372Z,15.90
2022-08-31T22:59:28.057Z,15.90
2022-08-31T23:01:59.166Z,15.90
2022-08-31T23:04:28.082Z,15.90
2022-08-31T23:06:57.633Z,15.90
2022-08-31T23:09:27.873Z,15.90
2022-08-31T23:11:57.076Z,15.90
2022-08-31T23:14:24.471Z,15.80
2022-08-31T23:16:59.214Z,15.80
2022-08-31T23:19:33.466Z,15.80
2022-08-31T23:22:01.803Z,15.80
2022-08-31T23:24:45.188Z,15.80
2022-08-31T23:27:13.628Z,15.80
2022-08-31T23:29:47.625Z,15.80
2022-08-31T23:32:17.456Z,15.70
2022-08-31T23:34:44.865Z,15.70
2022-08-31T23:37:11.986Z,15.70
2022-08-31T23:39:43.665Z,15.70
2022-08-31T23:42:13.263Z,15.70
2022-08-31T23:44:44.400Z,15.70
2022-08-31T23:47:15.456Z,15.70
2022-08-31T23:49:43.779Z,15.60
2022-08-31T23:52:18.740Z,15.70
2022-08-31T23:54:47.924Z,15.60
2022-08-31T23:57:32.290Z,15.60
